Terminal Aerodrome Forecast
Issued by NWS Sioux Falls, SD

Home | Current Version | Previous Version | Graphics & Text | Print | Product List | Glossary Off
Versions: 1 2 3 4 5 6 7 8 9 10 11 12 13 14 15 16 17 18 19 20

000
FTUS43 KFSD 291027 AAA
TAFFSD
TAF AMD
KFSD 291027Z 2910/3006 18005KT P6SM OVC015
      TEMPO 2911/2913 4SM BR SCT007 OVC012
     FM291300 27004KT 6SM BR BKN007 OVC025
     FM291600 VRB05KT P6SM SCT015 BKN035
     FM300000 22005KT P6SM SCT040 SCT080=

USA.gov is the U.S. government's official web portal to all federal, state and local government web resources and services.